Time,TemperatureF,DewpointF,PressureIn,WindDirection,WindDirectionDegrees,WindSpeedMPH,WindSpeedGustMPH,Humidity,HourlyPrecipIn,Conditions,Clouds,dailyrainin,SoftwareType,DateUTC
2013-03-06 00:01:00,28.0,12.0,29.97,SSE,159,1.0,4.0,51,-99.99,,,-99.99,,2013-03-06 07:01:00,
2013-03-06 00:11:00,28.0,12.0,29.97,SSE,159,1.0,4.0,51,-99.99,,,-99.99,,2013-03-06 07:11:00,
2013-03-06 00:22:00,27.0,12.0,29.97,South,189,0.0,3.0,53,-99.99,,,-99.99,,2013-03-06 07:22:00,
2013-03-06 00:31:00,27.0,13.0,29.96,SSE,162,2.0,3.0,54,-99.99,,,-99.99,,2013-03-06 07:31:00,
2013-03-06 00:42:00,27.0,13.0,-100.00,SSE,162,2.0,3.0,54,-99.99,,,-99.99,,2013-03-06 07:42:00,
2013-03-06 00:52:00,27.0,13.0,29.96,SSE,166,1.0,3.0,54,-99.99,,,-99.99,,2013-03-06 07:52:00,
2013-03-06 01:01:00,27.0,13.0,29.95,SE,127,0.0,2.0,54,-99.99,,,-99.99,,2013-03-06 08:01:00,
2013-03-06 01:11:00,27.0,13.0,29.95,SE,127,0.0,2.0,54,-99.99,,,-99.99,,2013-03-06 08:11:00,
2013-03-06 01:21:00,29.0,12.0,29.95,North,355,1.0,6.0,49,-99.99,,,-99.99,,2013-03-06 08:21:00,
2013-03-06 01:31:00,29.0,12.0,29.96,East,87,1.0,8.0,49,-99.99,,,-99.99,,2013-03-06 08:31:00,
2013-03-06 01:42:00,29.0,12.0,29.96,East,87,1.0,8.0,49,-99.99,,,-99.99,,2013-03-06 08:42:00,
2013-03-06 01:52:00,28.0,11.0,29.96,SSE,153,1.0,3.0,49,-99.99,,,-99.99,,2013-03-06 08:52:00,
2013-03-06 02:01:00,28.0,12.0,29.96,SSE,151,1.0,4.0,50,-99.99,,,-99.99,,2013-03-06 09:01:00,
2013-03-06 02:12:00,28.0,12.0,29.96,SSE,151,1.0,4.0,50,-99.99,,,-99.99,,2013-03-06 09:12:00,
2013-03-06 02:21:00,27.0,11.0,29.96,SSE,155,1.0,3.0,51,-99.99,,,-99.99,,2013-03-06 09:21:00,
2013-03-06 02:31:00,27.0,11.0,29.96,South,172,3.0,6.0,51,-99.99,,,-99.99,,2013-03-06 09:31:00,
2013-03-06 02:41:00,27.0,11.0,29.96,South,172,3.0,6.0,51,-99.99,,,-99.99,,2013-03-06 09:41:00,
2013-03-06 02:52:00,28.0,12.0,29.95,SSE,157,2.0,4.0,50,-99.99,,,-99.99,,2013-03-06 09:52:00,
2013-03-06 03:01:00,27.0,11.0,29.95,SSE,161,1.0,3.0,50,-99.99,,,-99.99,,2013-03-06 10:01:00,
2013-03-06 03:11:00,27.0,11.0,29.95,SSE,161,1.0,3.0,50,-99.99,,,-99.99,,2013-03-06 10:11:00,
2013-03-06 03:21:00,27.0,12.0,29.94,South,172,2.0,6.0,53,-99.99,,,-99.99,,2013-03-06 10:21:00,
2013-03-06 03:31:00,27.0,12.0,29.92,South,174,2.0,7.0,53,-99.99,,,-99.99,,2013-03-06 10:31:00,
2013-03-06 03:42:00,27.0,12.0,-100.00,South,174,2.0,7.0,53,-99.99,,,-99.99,,2013-03-06 10:42:00,
2013-03-06 03:52:00,27.0,12.0,29.91,South,188,2.0,8.0,52,-99.99,,,-99.99,,2013-03-06 10:52:00,
2013-03-06 04:01:00,29.0,12.0,29.90,SSW,209,5.0,11.0,49,-99.99,,,-99.99,,2013-03-06 11:01:00,
2013-03-06 04:11:00,29.0,12.0,-100.00,SSW,209,5.0,11.0,49,-99.99,,,-99.99,,2013-03-06 11:11:00,
2013-03-06 04:22:00,30.0,12.0,29.90,South,191,3.0,10.0,47,-99.99,,,-99.99,,2013-03-06 11:22:00,
2013-03-06 04:32:00,31.0,13.0,29.90,South,176,3.0,12.0,47,-99.99,,,-99.99,,2013-03-06 11:32:00,
2013-03-06 04:42:00,31.0,13.0,-100.00,South,176,3.0,12.0,47,-99.99,,,-99.99,,2013-03-06 11:42:00,
2013-03-06 04:52:00,32.0,14.0,29.90,SSW,193,3.0,10.0,47,-99.99,,,-99.99,,2013-03-06 11:52:00,
2013-03-06 05:01:00,32.0,14.0,29.89,South,179,4.0,11.0,47,-99.99,,,-99.99,,2013-03-06 12:01:00,
2013-03-06 05:11:00,32.0,14.0,-100.00,South,179,4.0,11.0,47,-99.99,,,-99.99,,2013-03-06 12:11:00,
2013-03-06 05:21:00,32.0,14.0,29.89,SSW,203,3.0,11.0,47,-99.99,,,-99.99,,2013-03-06 12:21:00,
2013-03-06 05:32:00,32.0,15.0,29.89,NNE,28,1.0,7.0,48,-99.99,,,-99.99,,2013-03-06 12:32:00,
2013-03-06 05:42:00,32.0,15.0,-100.00,NNE,28,1.0,7.0,48,-99.99,,,-99.99,,2013-03-06 12:42:00,
2013-03-06 05:52:00,29.0,14.0,29.90,SSE,167,0.0,3.0,54,-99.99,,,-99.99,,2013-03-06 12:52:00,
2013-03-06 06:01:00,30.0,15.0,29.89,SSE,167,2.0,7.0,52,-99.99,,,-99.99,,2013-03-06 13:01:00,
2013-03-06 06:11:00,30.0,15.0,-100.00,SSE,167,2.0,7.0,52,-99.99,,,-99.99,,2013-03-06 13:11:00,
2013-03-06 06:21:00,31.0,15.0,29.89,South,182,3.0,9.0,50,-99.99,,,-99.99,,2013-03-06 13:21:00,
2013-03-06 06:32:00,31.0,15.0,29.89,SSE,167,2.0,7.0,50,-99.99,,,-99.99,,2013-03-06 13:32:00,
2013-03-06 06:42:00,31.0,15.0,-100.00,SSE,167,2.0,7.0,50,-99.99,,,-99.99,,2013-03-06 13:42:00,
2013-03-06 06:52:00,31.0,15.0,29.89,SSW,200,2.0,12.0,50,-99.99,,,-99.99,,2013-03-06 13:52:00,
2013-03-06 07:01:00,31.0,15.0,29.89,ENE,70,1.0,6.0,51,-99.99,,,-99.99,,2013-03-06 14:01:00,
2013-03-06 07:11:00,31.0,15.0,-100.00,ENE,70,1.0,6.0,51,-99.99,,,-99.99,,2013-03-06 14:11:00,
2013-03-06 07:21:00,33.0,16.0,29.89,South,183,4.0,13.0,50,-99.99,,,-99.99,,2013-03-06 14:21:00,
2013-03-06 07:32:00,34.0,16.0,29.89,SSW,195,4.0,13.0,47,-99.99,,,-99.99,,2013-03-06 14:32:00,
2013-03-06 07:42:00,34.0,16.0,-100.00,SSW,195,4.0,13.0,47,-99.99,,,-99.99,,2013-03-06 14:42:00,
2013-03-06 07:52:00,34.0,15.0,29.89,SSW,210,6.0,14.0,46,-99.99,,,-99.99,,2013-03-06 14:52:00,
2013-03-06 08:01:00,34.0,15.0,29.89,SSW,202,5.0,11.0,45,-99.99,,,-99.99,,2013-03-06 15:01:00,
2013-03-06 08:11:00,34.0,15.0,29.89,SSW,202,5.0,11.0,45,-99.99,,,-99.99,,2013-03-06 15:11:00,
2013-03-06 08:21:00,34.0,15.0,29.89,SSW,197,5.0,12.0,46,-99.99,,,-99.99,,2013-03-06 15:21:00,
2013-03-06 08:32:00,34.0,15.0,29.89,SW,217,7.0,17.0,46,-99.99,,,-99.99,,2013-03-06 15:32:00,
2013-03-06 08:42:00,34.0,15.0,29.89,SW,217,7.0,17.0,46,-99.99,,,-99.99,,2013-03-06 15:42:00,
2013-03-06 08:52:00,34.0,15.0,29.89,SW,217,7.0,17.0,46,-99.99,,,-99.99,,2013-03-06 15:52:00,
2013-03-06 09:01:00,35.0,15.0,29.89,SSW,209,8.0,17.0,43,-99.99,,,-99.99,,2013-03-06 16:01:00,
2013-03-06 09:11:00,35.0,15.0,29.89,SSW,209,8.0,17.0,43,-99.99,,,-99.99,,2013-03-06 16:11:00,
2013-03-06 09:21:00,35.0,15.0,29.89,SW,214,8.0,18.0,43,-99.99,,,-99.99,,2013-03-06 16:21:00,
2013-03-06 09:32:00,35.0,15.0,29.89,WSW,258,3.0,14.0,43,-99.99,,,-99.99,,2013-03-06 16:32:00,
2013-03-06 09:41:00,35.0,15.0,29.89,WSW,258,3.0,14.0,43,-99.99,,,-99.99,,2013-03-06 16:41:00,
2013-03-06 09:52:00,34.0,14.0,29.89,SW,214,7.0,15.0,43,-99.99,,,-99.99,,2013-03-06 16:52:00,
2013-03-06 10:01:00,34.0,14.0,29.89,SW,234,5.0,17.0,44,-99.99,,,-99.99,,2013-03-06 17:01:00,
2013-03-06 10:11:00,34.0,14.0,29.89,SW,234,5.0,17.0,44,-99.99,,,-99.99,,2013-03-06 17:11:00,
2013-03-06 10:21:00,36.0,15.0,29.89,NNE,21,1.0,5.0,41,-99.99,,,-99.99,,2013-03-06 17:21:00,
2013-03-06 10:32:00,37.0,15.0,29.89,SW,222,3.0,15.0,40,-99.99,,,-99.99,,2013-03-06 17:32:00,
2013-03-06 10:41:00,37.0,15.0,29.89,SW,222,3.0,15.0,40,-99.99,,,-99.99,,2013-03-06 17:41:00,
2013-03-06 10:52:00,39.0,16.0,29.87,West,271,2.0,7.0,39,-99.99,,,-99.99,,2013-03-06 17:52:00,
2013-03-06 11:01:00,39.0,16.0,29.87,West,269,3.0,10.0,39,-99.99,,,-99.99,,2013-03-06 18:01:00,
2013-03-06 11:28:00,40.0,17.0,29.86,WNW,286,2.0,7.0,39,-99.99,,,-99.99,,2013-03-06 18:28:00,
2013-03-06 11:42:00,39.0,17.0,-100.00,SSW,212,7.0,16.0,40,-99.99,,,-99.99,,2013-03-06 18:42:00,
2013-03-06 11:52:00,40.0,18.0,29.85,SSW,197,7.0,19.0,41,-99.99,,,-99.99,,2013-03-06 18:52:00,
2013-03-06 12:02:00,41.0,19.0,29.84,SSW,200,7.0,20.0,40,-99.99,,,-99.99,,2013-03-06 19:02:00,
2013-03-06 12:11:00,41.0,19.0,-100.00,SSW,200,7.0,20.0,40,-99.99,,,-99.99,,2013-03-06 19:11:00,
2013-03-06 12:21:00,41.0,19.0,29.84,SSW,211,7.0,22.0,40,-99.99,,,-99.99,,2013-03-06 19:21:00,
2013-03-06 12:32:00,42.0,20.0,29.84,SW,231,5.0,15.0,41,-99.99,,,-99.99,,2013-03-06 19:32:00,
2013-03-06 12:43:00,42.0,20.0,-100.00,SW,231,5.0,15.0,41,-99.99,,,-99.99,,2013-03-06 19:43:00,
2013-03-06 12:52:00,43.0,20.0,29.84,WSW,252,4.0,11.0,40,-99.99,,,-99.99,,2013-03-06 19:52:00,
2013-03-06 13:01:00,43.0,20.0,29.84,West,260,7.0,25.0,40,-99.99,,,-99.99,,2013-03-06 20:01:00,
2013-03-06 13:11:00,43.0,20.0,-100.00,West,260,7.0,25.0,40,-99.99,,,-99.99,,2013-03-06 20:11:00,
2013-03-06 13:22:00,43.0,20.0,29.83,SW,224,6.0,24.0,39,-99.99,,,-99.99,,2013-03-06 20:22:00,
2013-03-06 13:32:00,42.0,18.0,29.83,SW,216,8.0,20.0,37,-99.99,,,-99.99,,2013-03-06 20:32:00,
2013-03-06 13:42:00,42.0,18.0,-100.00,SW,216,8.0,20.0,37,-99.99,,,-99.99,,2013-03-06 20:42:00,
2013-03-06 13:52:00,43.0,19.0,29.81,SW,228,6.0,14.0,37,-99.99,,,-99.99,,2013-03-06 20:52:00,
2013-03-06 14:02:00,43.0,18.0,29.81,SSW,206,6.0,15.0,36,-99.99,,,-99.99,,2013-03-06 21:02:00,
2013-03-06 14:11:00,43.0,18.0,-100.00,SSW,206,6.0,15.0,36,-99.99,,,-99.99,,2013-03-06 21:11:00,
2013-03-06 14:22:00,44.0,19.0,29.80,SSW,210,7.0,25.0,36,-99.99,,,-99.99,,2013-03-06 21:22:00,
2013-03-06 14:32:00,43.0,18.0,29.81,SSW,201,6.0,14.0,36,-99.99,,,-99.99,,2013-03-06 21:32:00,
2013-03-06 14:42:00,43.0,18.0,29.81,SSW,201,6.0,14.0,36,-99.99,,,-99.99,,2013-03-06 21:42:00,
2013-03-06 14:52:00,44.0,19.0,29.80,SSW,201,6.0,14.0,36,-99.99,,,-99.99,,2013-03-06 21:52:00,
2013-03-06 15:01:00,44.0,19.0,29.80,SSW,193,7.0,18.0,36,-99.99,,,-99.99,,2013-03-06 22:01:00,
2013-03-06 15:11:00,44.0,19.0,-100.00,SSW,193,7.0,18.0,36,-99.99,,,-99.99,,2013-03-06 22:11:00,
2013-03-06 15:21:00,45.0,19.0,29.80,SSW,197,5.0,17.0,35,-99.99,,,-99.99,,2013-03-06 22:21:00,
2013-03-06 15:32:00,46.0,20.0,29.80,SSW,195,3.0,10.0,35,-99.99,,,-99.99,,2013-03-06 22:32:00,
2013-03-06 15:41:00,46.0,20.0,-100.00,SSW,195,3.0,10.0,35,-99.99,,,-99.99,,2013-03-06 22:41:00,
2013-03-06 15:52:00,46.0,20.0,29.79,South,176,4.0,13.0,35,-99.99,,,-99.99,,2013-03-06 22:52:00,
2013-03-06 16:01:00,45.0,20.0,29.79,SSW,192,6.0,16.0,36,-99.99,,,-99.99,,2013-03-06 23:01:00,
2013-03-06 16:11:00,45.0,20.0,-100.00,SSW,192,6.0,16.0,36,-99.99,,,-99.99,,2013-03-06 23:11:00,
2013-03-06 16:21:00,44.0,20.0,29.79,South,185,7.0,20.0,38,-99.99,,,-99.99,,2013-03-06 23:21:00,
2013-03-06 16:31:00,44.0,21.0,29.78,South,187,5.0,15.0,39,-99.99,,,-99.99,,2013-03-06 23:31:00,
2013-03-06 16:41:00,44.0,21.0,-100.00,South,187,5.0,15.0,39,-99.99,,,-99.99,,2013-03-06 23:41:00,
2013-03-06 16:52:00,43.0,20.0,29.78,South,178,7.0,17.0,39,-99.99,,,-99.99,,2013-03-06 23:52:00,
2013-03-06 17:01:00,43.0,20.0,29.79,SW,214,3.0,13.0,39,-99.99,,,-99.99,,2013-03-07 00:01:00,
2013-03-06 17:11:00,43.0,20.0,29.79,SW,214,3.0,13.0,39,-99.99,,,-99.99,,2013-03-07 00:11:00,
2013-03-06 17:21:00,43.0,20.0,29.79,South,189,4.0,11.0,39,-99.99,,,-99.99,,2013-03-07 00:21:00,
2013-03-06 17:32:00,43.0,20.0,29.80,SSW,204,2.0,10.0,40,-99.99,,,-99.99,,2013-03-07 00:32:00,
2013-03-06 17:41:00,43.0,20.0,29.80,SSW,204,2.0,10.0,40,-99.99,,,-99.99,,2013-03-07 00:41:00,
2013-03-06 17:52:00,43.0,20.0,29.79,South,190,2.0,9.0,40,-99.99,,,-99.99,,2013-03-07 00:52:00,
2013-03-06 18:01:00,43.0,20.0,29.79,South,174,3.0,9.0,40,-99.99,,,-99.99,,2013-03-07 01:01:00,
2013-03-06 18:11:00,43.0,20.0,-100.00,South,174,3.0,9.0,40,-99.99,,,-99.99,,2013-03-07 01:11:00,
2013-03-06 18:21:00,43.0,20.0,29.79,SSE,167,4.0,10.0,39,-99.99,,,-99.99,,2013-03-07 01:21:00,
2013-03-06 18:31:00,43.0,20.0,29.79,South,189,5.0,11.0,40,-99.99,,,-99.99,,2013-03-07 01:31:00,
2013-03-06 18:41:00,43.0,20.0,29.79,South,189,5.0,11.0,40,-99.99,,,-99.99,,2013-03-07 01:41:00,
2013-03-06 18:52:00,42.0,19.0,29.79,South,182,4.0,14.0,40,-99.99,,,-99.99,,2013-03-07 01:52:00,
2013-03-06 19:01:00,42.0,19.0,29.79,SSW,193,5.0,12.0,40,-99.99,,,-99.99,,2013-03-07 02:01:00,
2013-03-06 19:11:00,42.0,19.0,29.79,SSW,193,5.0,12.0,40,-99.99,,,-99.99,,2013-03-07 02:11:00,
2013-03-06 19:21:00,42.0,19.0,29.79,South,180,4.0,10.0,39,-99.99,,,-99.99,,2013-03-07 02:21:00,
2013-03-06 19:31:00,42.0,18.0,29.80,South,182,3.0,7.0,38,-99.99,,,-99.99,,2013-03-07 02:31:00,
2013-03-06 19:41:00,42.0,18.0,29.80,South,182,3.0,7.0,38,-99.99,,,-99.99,,2013-03-07 02:41:00,
2013-03-06 19:52:00,42.0,18.0,29.80,South,182,3.0,7.0,38,-99.99,,,-99.99,,2013-03-07 02:52:00,
2013-03-06 20:01:00,43.0,17.0,29.80,South,174,6.0,19.0,34,-99.99,,,-99.99,,2013-03-07 03:01:00,
2013-03-06 20:11:00,43.0,17.0,29.80,South,174,6.0,19.0,34,-99.99,,,-99.99,,2013-03-07 03:11:00,
2013-03-06 20:21:00,42.0,17.0,29.81,South,186,3.0,8.0,36,-99.99,,,-99.99,,2013-03-07 03:21:00,
2013-03-06 20:31:00,42.0,18.0,29.81,South,180,2.0,7.0,38,-99.99,,,-99.99,,2013-03-07 03:31:00,
2013-03-06 20:41:00,42.0,18.0,29.81,South,180,2.0,7.0,38,-99.99,,,-99.99,,2013-03-07 03:41:00,
2013-03-06 20:52:00,40.0,21.0,29.81,South,190,2.0,11.0,47,-99.99,,,-99.99,,2013-03-07 03:52:00,
2013-03-06 21:01:00,40.0,21.0,29.81,SW,215,3.0,16.0,46,-99.99,,,-99.99,,2013-03-07 04:01:00,
2013-03-06 21:11:00,40.0,21.0,29.81,SW,215,3.0,16.0,46,-99.99,,,-99.99,,2013-03-07 04:11:00,
2013-03-06 21:21:00,39.0,23.0,29.81,NE,35,1.0,4.0,52,-99.99,,,-99.99,,2013-03-07 04:21:00,
2013-03-06 21:31:00,39.0,23.0,29.83,North,11,2.0,6.0,53,-99.99,,,-99.99,,2013-03-07 04:31:00,
2013-03-06 21:41:00,39.0,23.0,29.83,North,11,2.0,6.0,53,-99.99,,,-99.99,,2013-03-07 04:41:00,
2013-03-06 21:52:00,38.0,23.0,29.84,NE,34,2.0,9.0,55,-99.99,,,-99.99,,2013-03-07 04:52:00,
2013-03-06 22:01:00,37.0,26.0,29.85,North,352,4.0,8.0,63,-99.99,,,-99.99,,2013-03-07 05:01:00,
2013-03-06 22:12:00,37.0,26.0,29.85,North,352,4.0,8.0,63,-99.99,,,-99.99,,2013-03-07 05:12:00,
2013-03-06 22:22:00,34.0,31.0,29.86,NE,37,2.0,9.0,88,-99.99,,,-99.99,,2013-03-07 05:22:00,
2013-03-06 22:31:00,32.0,31.0,29.86,NNE,33,1.0,6.0,96,-99.99,,,-99.99,,2013-03-07 05:31:00,
2013-03-06 22:41:00,32.0,31.0,29.86,NNE,33,1.0,6.0,96,-99.99,,,-99.99,,2013-03-07 05:41:00,
2013-03-06 22:52:00,32.0,31.0,29.86,North,0,2.0,8.0,97,-99.99,,,-99.99,,2013-03-07 05:52:00,
2013-03-06 23:01:00,31.0,31.0,29.86,North,358,2.0,5.0,100,-99.99,,,-99.99,,2013-03-07 06:01:00,
2013-03-06 23:11:00,31.0,31.0,29.86,North,358,2.0,5.0,100,-99.99,,,-99.99,,2013-03-07 06:11:00,
2013-03-06 23:21:00,31.0,31.0,29.86,NE,53,0.0,2.0,100,-99.99,,,-99.99,,2013-03-07 06:21:00,
2013-03-06 23:31:00,30.0,30.0,29.86,SSW,193,1.0,3.0,100,-99.99,,,-99.99,,2013-03-07 06:31:00,
2013-03-06 23:41:00,30.0,30.0,29.86,SSW,193,1.0,3.0,100,-99.99,,,-99.99,,2013-03-07 06:41:00,
2013-03-06 23:52:00,30.0,30.0,29.87,NNW,329,0.0,4.0,100,-99.99,,,-99.99,,2013-03-07 06:52:00,